createdAt,value
2023-02-08T00:01:15.254Z,66.29
2023-02-08T00:03:43.993Z,66.18
2023-02-08T00:06:13.121Z,66.17
2023-02-08T00:08:41.445Z,66.25
2023-02-08T00:11:13.135Z,66.24
2023-02-08T00:13:42.278Z,66.27
2023-02-08T00:16:12.769Z,66.28
2023-02-08T00:18:41.589Z,66.14
2023-02-08T00:21:11.876Z,66.13
2023-02-08T00:23:40.483Z,66.12
2023-02-08T00:26:09.206Z,66.14
2023-02-08T00:28:37.183Z,65.99
2023-02-08T00:31:06.148Z,65.97
2023-02-08T00:33:35.892Z,66.05
2023-02-08T00:36:06.732Z,65.95
2023-02-08T00:38:35.473Z,66.10
2023-02-08T00:41:03.568Z,66.07
2023-02-08T00:43:31.760Z,65.98
2023-02-08T00:46:00.745Z,66.02
2023-02-08T00:48:29.201Z,65.90
2023-02-08T00:51:02.279Z,66.02
2023-02-08T00:53:30.273Z,65.95
2023-02-08T00:55:58.214Z,65.98
2023-02-08T00:58:26.853Z,65.97
2023-02-08T01:00:55.197Z,66.24
2023-02-08T01:03:23.980Z,66.17
2023-02-08T01:05:52.559Z,65.90
2023-02-08T01:08:22.082Z,65.93
2023-02-08T01:10:50.180Z,65.89
2023-02-08T01:13:18.279Z,65.99
2023-02-08T01:15:46.230Z,65.85
2023-02-08T01:18:14.142Z,65.72
2023-02-08T01:20:42.896Z,65.87
2023-02-08T01:23:10.833Z,65.77
2023-02-08T01:25:39.486Z,65.94
2023-02-08T01:28:07.370Z,66.05
2023-02-08T01:30:35.313Z,66.08
2023-02-08T01:33:03.233Z,66.13
2023-02-08T01:35:31.094Z,66.11
2023-02-08T01:37:58.950Z,65.86
2023-02-08T01:40:26.831Z,65.88
2023-02-08T01:42:54.656Z,65.89
2023-02-08T01:45:29.987Z,65.81
2023-02-08T01:48:10.621Z,65.99
2023-02-08T01:51:09.357Z,66.15
2023-02-08T01:53:39.991Z,66.20
2023-02-08T01:56:12.707Z,66.15
2023-02-08T01:58:45.389Z,66.05
2023-02-08T02:01:14.471Z,66.09
2023-02-08T02:03:43.187Z,66.11
2023-02-08T02:06:15.410Z,66.11
2023-02-08T02:08:55.918Z,65.96
2023-02-08T02:11:24.563Z,66.10
2023-02-08T02:13:54.834Z,66.17
2023-02-08T02:16:22.823Z,66.11
2023-02-08T02:18:52.299Z,66.03
2023-02-08T02:21:52.100Z,65.91
2023-02-08T02:24:28.784Z,66.05
2023-02-08T02:27:15.139Z,66.08
2023-02-08T02:30:14.090Z,66.26
2023-02-08T02:32:58.041Z,66.28
2023-02-08T02:35:39.438Z,66.35
2023-02-08T02:38:12.537Z,66.36
2023-02-08T02:40:51.576Z,66.40
2023-02-08T02:43:38.083Z,66.34
2023-02-08T02:46:14.905Z,66.33
2023-02-08T02:49:04.204Z,66.41
2023-02-08T02:51:41.303Z,66.45
2023-02-08T02:54:24.496Z,66.42
2023-02-08T02:56:56.569Z,66.46
2023-02-08T02:59:25.559Z,66.42
2023-02-08T03:01:55.150Z,66.48
2023-02-08T03:04:32.388Z,66.38
2023-02-08T03:07:14.356Z,66.33
2023-02-08T03:10:04.632Z,66.44
2023-02-08T03:12:57.887Z,66.31
2023-02-08T03:15:40.081Z,66.31
2023-02-08T03:18:36.359Z,66.46
2023-02-08T03:21:13.142Z,66.46
2023-02-08T03:23:59.408Z,66.46
2023-02-08T03:26:36.200Z,66.40
2023-02-08T03:29:15.617Z,66.39
2023-02-08T03:32:01.002Z,66.37
2023-02-08T03:34:51.148Z,66.50
2023-02-08T03:37:33.048Z,66.56
2023-02-08T03:40:12.852Z,66.52
2023-02-08T03:42:41.357Z,66.41
2023-02-08T03:45:40.450Z,66.48
2023-02-08T03:48:11.503Z,66.56
2023-02-08T03:50:41.082Z,66.55
2023-02-08T03:53:10.760Z,66.53
2023-02-08T03:55:42.035Z,66.43
2023-02-08T03:58:39.016Z,66.27
2023-02-08T04:01:36.902Z,66.23
2023-02-08T04:04:05.354Z,66.40
2023-02-08T04:06:33.457Z,66.50
2023-02-08T04:09:01.354Z,66.41
2023-02-08T04:11:29.333Z,66.42
2023-02-08T04:13:57.178Z,66.53
2023-02-08T04:16:25.066Z,66.43
2023-02-08T04:18:52.992Z,66.64
2023-02-08T04:21:20.894Z,66.68
2023-02-08T04:23:48.760Z,66.65
2023-02-08T04:26:16.665Z,66.56
2023-02-08T04:28:44.945Z,66.63
2023-02-08T04:31:12.975Z,66.65
2023-02-08T04:33:41.421Z,66.59
2023-02-08T04:36:09.582Z,66.48
2023-02-08T04:38:37.568Z,66.54
2023-02-08T04:41:05.590Z,66.51
2023-02-08T04:43:33.534Z,66.47
2023-02-08T04:46:01.929Z,66.41
2023-02-08T04:48:30.113Z,66.48
2023-02-08T04:50:58.658Z,66.52
2023-02-08T04:53:26.902Z,66.60
2023-02-08T04:55:54.823Z,66.66
2023-02-08T04:58:23.234Z,66.67
2023-02-08T05:00:51.249Z,66.73
2023-02-08T05:03:19.556Z,66.71
2023-02-08T05:05:47.389Z,66.74
2023-02-08T05:08:15.290Z,66.94
2023-02-08T05:10:46.218Z,66.94
2023-02-08T05:13:14.104Z,66.89
2023-02-08T05:15:42.216Z,66.88
2023-02-08T05:18:10.262Z,66.97
2023-02-08T05:20:38.238Z,67.05
2023-02-08T05:23:06.297Z,66.94
2023-02-08T05:25:34.269Z,67.03
2023-02-08T05:28:03.123Z,66.87
2023-02-08T05:30:31.612Z,66.96
2023-02-08T05:32:59.632Z,66.92
2023-02-08T05:35:27.502Z,67.08
2023-02-08T05:37:55.360Z,67.10
2023-02-08T05:40:23.273Z,66.99
2023-02-08T05:42:51.181Z,67.04
2023-02-08T05:45:19.091Z,66.91
2023-02-08T05:47:49.551Z,66.80
2023-02-08T05:50:17.477Z,66.69
2023-02-08T05:52:45.442Z,66.67
2023-02-08T05:55:13.323Z,66.96
2023-02-08T05:57:41.213Z,67.04
2023-02-08T06:00:09.997Z,66.93
2023-02-08T06:02:44.069Z,67.07
2023-02-08T06:05:12.051Z,67.15
2023-02-08T06:07:39.853Z,67.17
2023-02-08T06:10:11.090Z,67.14
2023-02-08T06:12:39.302Z,67.11
2023-02-08T06:15:07.628Z,67.08
2023-02-08T06:17:35.501Z,67.17
2023-02-08T06:20:04.470Z,67.13
2023-02-08T06:22:34.972Z,67.28
2023-02-08T06:25:03.466Z,67.18
2023-02-08T06:27:31.491Z,67.25
2023-02-08T06:29:59.432Z,67.31
2023-02-08T06:32:27.573Z,67.27
2023-02-08T06:34:55.793Z,67.41
2023-02-08T06:37:23.819Z,67.62
2023-02-08T06:39:51.684Z,67.58
2023-02-08T06:42:19.592Z,67.50
2023-02-08T06:44:55.193Z,67.60
2023-02-08T06:47:24.927Z,67.70
2023-02-08T06:49:53.271Z,67.77
2023-02-08T06:52:21.656Z,67.68
2023-02-08T06:54:49.567Z,67.70
2023-02-08T06:57:17.495Z,67.69
2023-02-08T06:59:45.663Z,67.78
2023-02-08T07:02:16.138Z,67.69
2023-02-08T07:04:45.403Z,67.68
2023-02-08T07:07:14.144Z,67.64
2023-02-08T07:09:42.829Z,67.74
2023-02-08T07:12:11.124Z,67.84
2023-02-08T07:14:41.791Z,67.80
2023-02-08T07:17:11.139Z,67.70
2023-02-08T07:19:39.433Z,67.73
2023-02-08T07:22:10.735Z,67.69
2023-02-08T07:24:41.191Z,67.70
2023-02-08T07:27:11.317Z,67.77
2023-02-08T07:29:39.957Z,67.69
2023-02-08T07:32:08.541Z,67.62
2023-02-08T07:34:38.041Z,67.69
2023-02-08T07:37:06.913Z,67.66
2023-02-08T07:39:34.927Z,67.70
2023-02-08T07:42:03.023Z,67.50
2023-02-08T07:44:32.681Z,67.60
2023-02-08T07:47:02.042Z,67.47
2023-02-08T07:49:30.400Z,67.51
2023-02-08T07:52:02.148Z,67.63
2023-02-08T07:54:30.126Z,67.58
2023-02-08T07:56:58.033Z,67.52
2023-02-08T07:59:25.924Z,67.44
2023-02-08T08:01:53.788Z,67.42
2023-02-08T08:04:22.145Z,67.43
2023-02-08T08:06:51.509Z,67.15
2023-02-08T08:09:20.407Z,67.17
2023-02-08T08:11:48.306Z,67.27
2023-02-08T08:14:16.264Z,67.07
2023-02-08T08:16:44.355Z,66.98
2023-02-08T08:19:12.231Z,67.06
2023-02-08T08:21:40.574Z,66.98
2023-02-08T08:24:08.548Z,66.85
2023-02-08T08:26:36.522Z,66.76
2023-02-08T08:29:05.025Z,66.61
2023-02-08T08:31:33.067Z,66.62
2023-02-08T08:34:01.011Z,66.39
2023-02-08T08:36:29.154Z,66.34
2023-02-08T08:38:57.104Z,66.48
2023-02-08T08:41:27.282Z,66.50
2023-02-08T08:43:55.198Z,66.33
2023-02-08T08:46:23.265Z,66.42
2023-02-08T08:48:52.086Z,66.33
2023-02-08T08:51:20.115Z,66.37
2023-02-08T08:53:48.034Z,66.32
2023-02-08T08:56:16.204Z,66.37
2023-02-08T08:58:44.243Z,66.35
2023-02-08T09:01:13.979Z,66.39
2023-02-08T09:03:42.061Z,66.58
2023-02-08T09:06:10.155Z,66.68
2023-02-08T09:08:38.701Z,66.66
2023-02-08T09:11:12.568Z,66.73
2023-02-08T09:13:41.339Z,66.66
2023-02-08T09:16:14.078Z,66.56
2023-02-08T09:18:42.577Z,66.48
2023-02-08T09:21:16.797Z,66.40
2023-02-08T09:23:47.537Z,66.30
2023-02-08T09:26:17.944Z,66.08
2023-02-08T09:28:46.504Z,66.20
2023-02-08T09:31:25.231Z,66.13
2023-02-08T09:33:55.763Z,66.09
2023-02-08T09:36:25.530Z,66.10
2023-02-08T09:39:00.774Z,66.10
2023-02-08T09:41:54.712Z,65.92
2023-02-08T09:44:41.665Z,65.70
2023-02-08T09:47:36.126Z,65.74
2023-02-08T09:50:20.375Z,65.92
2023-02-08T09:53:13.024Z,66.11
2023-02-08T09:55:50.231Z,65.93
2023-02-08T09:58:26.419Z,65.85
2023-02-08T10:00:55.415Z,65.83
2023-02-08T10:03:39.357Z,65.84
2023-02-08T10:06:09.937Z,65.85
2023-02-08T10:08:39.660Z,65.93
2023-02-08T10:11:10.309Z,65.79
2023-02-08T10:13:53.148Z,65.69
2023-02-08T10:16:43.776Z,65.74
2023-02-08T10:19:43.193Z,65.45
2023-02-08T10:22:38.645Z,65.40
2023-02-08T10:25:23.789Z,65.37
2023-02-08T10:28:16.654Z,65.33
2023-02-08T10:31:17.496Z,65.03
2023-02-08T10:33:59.575Z,65.05
2023-02-08T10:36:32.103Z,65.06
2023-02-08T10:39:02.678Z,64.96
2023-02-08T10:41:36.714Z,64.89
2023-02-08T10:44:43.545Z,64.77
2023-02-08T10:47:23.864Z,64.88
2023-02-08T10:50:02.827Z,64.79
2023-02-08T10:52:31.079Z,64.73
2023-02-08T10:54:59.214Z,64.68
2023-02-08T10:57:34.306Z,64.74
2023-02-08T11:00:05.741Z,64.63
2023-02-08T11:02:38.800Z,64.76
2023-02-08T11:05:11.066Z,64.69
2023-02-08T11:07:39.490Z,64.70
2023-02-08T11:10:16.689Z,64.78
2023-02-08T11:12:57.441Z,64.81
2023-02-08T11:15:29.840Z,64.65
2023-02-08T11:18:01.332Z,64.70
2023-02-08T11:20:36.777Z,64.57
2023-02-08T11:23:26.951Z,64.44
2023-02-08T11:26:12.598Z,64.36
2023-02-08T11:28:41.728Z,64.25
2023-02-08T11:31:20.883Z,64.18
2023-02-08T11:34:11.519Z,64.29
2023-02-08T11:36:47.300Z,64.14
2023-02-08T11:39:27.318Z,64.14
2023-02-08T11:42:00.767Z,64.12
2023-02-08T11:44:43.223Z,64.32
2023-02-08T11:47:16.540Z,64.12
2023-02-08T11:49:55.200Z,64.11
2023-02-08T11:52:27.743Z,64.04
2023-02-08T11:55:13.224Z,63.86
2023-02-08T11:58:17.758Z,63.84
2023-02-08T12:00:58.024Z,63.84
2023-02-08T12:03:31.295Z,63.72
2023-02-08T12:06:26.389Z,63.67
2023-02-08T12:09:12.328Z,63.54
2023-02-08T12:11:50.304Z,63.59
2023-02-08T12:14:40.055Z,63.51
2023-02-08T12:17:34.166Z,63.44
2023-02-08T12:20:05.065Z,63.54
2023-02-08T12:22:39.557Z,63.43
2023-02-08T12:25:16.557Z,63.44
2023-02-08T12:28:09.630Z,63.41
2023-02-08T12:30:53.825Z,63.48
2023-02-08T12:33:37.760Z,63.47
2023-02-08T12:36:05.893Z,63.52
2023-02-08T12:39:19.950Z,63.56
2023-02-08T12:42:26.741Z,63.68
2023-02-08T12:45:15.323Z,63.90
2023-02-08T12:48:04.426Z,63.81
2023-02-08T12:50:46.260Z,63.68
2023-02-08T12:53:44.837Z,63.53
2023-02-08T12:56:18.888Z,63.48
2023-02-08T12:58:50.264Z,63.64
2023-02-08T13:01:24.463Z,63.49
2023-02-08T13:04:15.603Z,63.36
2023-02-08T13:06:58.150Z,63.23
2023-02-08T13:09:59.833Z,63.47
2023-02-08T13:12:33.099Z,63.38
2023-02-08T13:15:28.407Z,63.44
2023-02-08T13:18:01.373Z,63.35
2023-02-08T13:20:40.781Z,63.40
2023-02-08T13:23:30.474Z,63.36
2023-02-08T13:26:03.306Z,63.32
2023-02-08T13:28:31.261Z,63.23
2023-02-08T13:31:13.436Z,63.15
2023-02-08T13:34:00.776Z,63.18
2023-02-08T13:36:37.919Z,63.21
2023-02-08T13:39:09.560Z,63.16
2023-02-08T13:41:37.747Z,63.03
2023-02-08T13:44:08.463Z,62.98
2023-02-08T13:46:45.137Z,63.01
2023-02-08T13:49:43.226Z,63.20
2023-02-08T13:52:12.789Z,62.99
2023-02-08T13:54:40.662Z,63.17
2023-02-08T13:57:53.843Z,63.05
2023-02-08T14:00:28.790Z,63.06
2023-02-08T14:03:01.044Z,62.88
2023-02-08T14:05:47.347Z,63.17
2023-02-08T14:08:42.151Z,63.16
2023-02-08T14:11:39.026Z,63.08
2023-02-08T14:14:20.787Z,63.18
2023-02-08T14:17:03.814Z,63.07
2023-02-08T14:19:36.688Z,63.19
2023-02-08T14:22:08.410Z,63.28
2023-02-08T14:24:48.150Z,63.07
2023-02-08T14:27:28.610Z,63.04
2023-02-08T14:30:33.512Z,63.06
2023-02-08T14:33:04.242Z,62.98
2023-02-08T14:35:36.767Z,63.10
2023-02-08T14:38:19.878Z,63.07
2023-02-08T14:40:54.805Z,63.20
2023-02-08T14:43:37.846Z,63.22
2023-02-08T14:46:43.614Z,63.12
2023-02-08T14:49:19.273Z,63.08
2023-02-08T14:51:54.119Z,63.16
2023-02-08T14:54:32.676Z,63.20
2023-02-08T14:57:04.892Z,63.20
2023-02-08T14:59:34.941Z,63.36
2023-02-08T15:02:15.437Z,63.22
2023-02-08T15:04:45.460Z,63.43
2023-02-08T15:07:30.063Z,63.50
2023-02-08T15:10:04.117Z,63.61
2023-02-08T15:12:41.199Z,63.61
2023-02-08T15:15:32.745Z,63.54
2023-02-08T15:18:02.283Z,63.51
2023-02-08T15:20:33.710Z,63.57
2023-02-08T15:23:20.331Z,63.52
2023-02-08T15:26:22.370Z,63.63
2023-02-08T15:28:50.259Z,63.74
2023-02-08T15:31:21.852Z,63.85
2023-02-08T15:33:52.316Z,63.84
2023-02-08T15:36:30.203Z,63.75
2023-02-08T15:39:01.058Z,63.99
2023-02-08T15:41:32.270Z,63.93
2023-02-08T15:44:03.251Z,63.84
2023-02-08T15:46:32.123Z,64.03
2023-02-08T15:49:00.422Z,64.13
2023-02-08T15:51:29.246Z,64.11
2023-02-08T15:53:57.453Z,64.13
2023-02-08T15:56:38.709Z,64.17
2023-02-08T15:59:18.552Z,64.38
2023-02-08T16:01:47.809Z,64.32
2023-02-08T16:04:16.133Z,64.43
2023-02-08T16:06:57.002Z,64.35
2023-02-08T16:09:29.793Z,64.44
2023-02-08T16:12:00.564Z,64.43
2023-02-08T16:14:30.853Z,64.47
2023-02-08T16:17:00.141Z,64.56
2023-02-08T16:19:33.936Z,64.65
2023-02-08T16:22:32.748Z,64.67
2023-02-08T16:25:25.556Z,64.83
2023-02-08T16:27:53.657Z,64.86
2023-02-08T16:30:22.872Z,64.94
2023-02-08T16:32:50.969Z,65.10
2023-02-08T16:35:29.570Z,65.07
2023-02-08T16:38:00.595Z,65.25
2023-02-08T16:40:51.757Z,65.39
2023-02-08T16:43:31.731Z,65.34
2023-02-08T16:46:25.353Z,65.43
2023-02-08T16:48:55.880Z,65.50
2023-02-08T16:51:27.345Z,65.61
2023-02-08T16:54:00.657Z,65.78
2023-02-08T16:56:29.124Z,65.70
2023-02-08T16:58:56.999Z,65.59
2023-02-08T17:01:26.353Z,65.72
2023-02-08T17:03:54.684Z,65.73
2023-02-08T17:06:32.346Z,65.64
2023-02-08T17:09:02.000Z,65.77
2023-02-08T17:11:30.390Z,65.96
2023-02-08T17:13:58.811Z,66.03
2023-02-08T17:16:31.921Z,65.96
2023-02-08T17:19:03.706Z,66.13
2023-02-08T17:21:31.642Z,66.20
2023-02-08T17:23:59.994Z,66.35
2023-02-08T17:26:32.250Z,66.34
2023-02-08T17:29:00.367Z,66.52
2023-02-08T17:31:31.171Z,66.42
2023-02-08T17:34:04.384Z,66.55
2023-02-08T17:36:35.128Z,66.56
2023-02-08T17:39:05.407Z,66.62
2023-02-08T17:41:33.469Z,66.61
2023-02-08T17:44:01.595Z,66.69
2023-02-08T17:46:32.877Z,66.65
2023-02-08T17:49:01.756Z,66.64
2023-02-08T17:51:30.432Z,66.78
2023-02-08T17:53:58.866Z,66.83
2023-02-08T17:56:28.597Z,66.90
2023-02-08T17:58:56.636Z,66.90
2023-02-08T18:01:27.167Z,66.91
2023-02-08T18:03:55.253Z,66.97
2023-02-08T18:06:25.013Z,66.98
2023-02-08T18:08:54.817Z,67.05
2023-02-08T18:11:24.008Z,67.14
2023-02-08T18:13:53.910Z,67.24
2023-02-08T18:16:25.316Z,67.29
2023-02-08T18:19:01.228Z,67.21
2023-02-08T18:21:33.520Z,67.35
2023-02-08T18:24:03.179Z,67.39
2023-02-08T18:26:34.391Z,67.35
2023-02-08T18:29:02.864Z,67.43
2023-02-08T18:31:31.786Z,67.39
2023-02-08T18:34:00.226Z,67.52
2023-02-08T18:36:28.120Z,67.63
2023-02-08T18:38:56.979Z,67.58
2023-02-08T18:41:27.062Z,67.69
2023-02-08T18:43:57.240Z,67.65
2023-02-08T18:46:26.825Z,67.57
2023-02-08T18:48:55.426Z,67.77
2023-02-08T18:51:24.737Z,69.70
2023-02-08T18:53:55.305Z,71.12
2023-02-08T18:56:25.303Z,69.84
2023-02-08T18:58:54.899Z,69.20
2023-02-08T19:01:24.592Z,68.92
2023-02-08T19:03:53.480Z,68.71
2023-02-08T19:06:25.065Z,68.62
2023-02-08T19:08:55.765Z,68.44
2023-02-08T19:11:34.114Z,68.57
2023-02-08T19:14:04.621Z,68.46
2023-02-08T19:16:35.245Z,68.44
2023-02-08T19:19:05.427Z,68.39
2023-02-08T19:21:34.199Z,68.44
2023-02-08T19:24:05.180Z,68.54
2023-02-08T19:26:36.951Z,68.44
2023-02-08T19:29:07.349Z,68.38
2023-02-08T19:31:35.633Z,68.43
2023-02-08T19:34:04.741Z,68.48
2023-02-08T19:36:38.214Z,68.31
2023-02-08T19:39:07.360Z,68.36
2023-02-08T19:41:39.482Z,68.31
2023-02-08T19:44:09.540Z,68.31
2023-02-08T19:46:40.366Z,68.39
2023-02-08T19:49:08.343Z,68.25
2023-02-08T19:51:37.145Z,68.30
2023-02-08T19:54:08.508Z,68.31
2023-02-08T19:56:37.310Z,68.21
2023-02-08T19:59:07.513Z,68.28
2023-02-08T20:01:36.228Z,68.13
2023-02-08T20:04:05.752Z,68.08
2023-02-08T20:06:38.770Z,68.06
2023-02-08T20:09:07.922Z,68.23
2023-02-08T20:11:51.228Z,68.09
2023-02-08T20:14:31.245Z,68.10
2023-02-08T20:17:00.498Z,68.04
2023-02-08T20:19:29.242Z,68.03
2023-02-08T20:21:57.147Z,68.09
2023-02-08T20:24:25.360Z,68.01
2023-02-08T20:26:53.400Z,67.96
2023-02-08T20:29:21.461Z,68.08
2023-02-08T20:31:53.583Z,68.16
2023-02-08T20:34:21.669Z,68.09
2023-02-08T20:37:05.842Z,68.10
2023-02-08T20:39:38.799Z,68.07
2023-02-08T20:42:06.773Z,68.09
2023-02-08T20:44:34.764Z,68.07
2023-02-08T20:47:02.656Z,68.05
2023-02-08T20:49:32.281Z,67.99
2023-02-08T20:52:00.644Z,68.05
2023-02-08T20:54:28.761Z,68.09
2023-02-08T20:56:57.695Z,67.95
2023-02-08T20:59:25.839Z,67.99
2023-02-08T21:01:54.192Z,67.96
2023-02-08T21:04:26.360Z,67.99
2023-02-08T21:06:54.201Z,67.93
2023-02-08T21:09:22.200Z,67.90
2023-02-08T21:11:51.182Z,67.93
2023-02-08T21:14:21.406Z,67.94
2023-02-08T21:16:56.283Z,67.93
2023-02-08T21:19:28.027Z,67.96
2023-02-08T21:21:59.824Z,67.92
2023-02-08T21:24:28.433Z,67.91
2023-02-08T21:26:57.196Z,68.03
2023-02-08T21:29:25.740Z,67.99
2023-02-08T21:31:54.684Z,67.98
2023-02-08T21:34:23.131Z,67.93
2023-02-08T21:36:51.187Z,67.95
2023-02-08T21:39:19.203Z,68.06
2023-02-08T21:41:48.244Z,68.03
2023-02-08T21:44:16.235Z,68.10
2023-02-08T21:46:44.232Z,68.08
2023-02-08T21:49:30.630Z,67.96
2023-02-08T21:52:16.901Z,68.03
2023-02-08T21:54:45.754Z,68.15
2023-02-08T21:57:15.161Z,68.03
2023-02-08T21:59:43.582Z,68.02
2023-02-08T22:02:24.635Z,67.97
2023-02-08T22:05:12.753Z,67.78
2023-02-08T22:07:44.535Z,67.89
2023-02-08T22:10:14.172Z,67.95
2023-02-08T22:12:42.439Z,67.86
2023-02-08T22:15:16.436Z,67.88
2023-02-08T22:17:45.228Z,67.92
2023-02-08T22:20:15.154Z,67.82
2023-02-08T22:22:43.094Z,67.81
2023-02-08T22:25:11.432Z,67.88
2023-02-08T22:27:39.372Z,67.87
2023-02-08T22:30:10.263Z,67.81
2023-02-08T22:32:42.816Z,67.94
2023-02-08T22:35:11.812Z,67.92
2023-02-08T22:37:39.877Z,67.91
2023-02-08T22:40:10.919Z,67.94
2023-02-08T22:42:40.386Z,67.87
2023-02-08T22:45:08.977Z,67.85
2023-02-08T22:47:37.502Z,67.81
2023-02-08T22:50:07.174Z,67.74
2023-02-08T22:52:35.280Z,67.76
2023-02-08T22:55:04.333Z,67.72
2023-02-08T22:57:33.662Z,67.78
2023-02-08T23:00:02.277Z,67.79
2023-02-08T23:02:30.516Z,67.69
2023-02-08T23:04:58.510Z,67.71
2023-02-08T23:07:26.391Z,67.68
2023-02-08T23:09:54.407Z,67.60
2023-02-08T23:12:22.374Z,67.79
2023-02-08T23:14:51.083Z,67.58
2023-02-08T23:17:19.001Z,67.60
2023-02-08T23:19:47.144Z,67.68
2023-02-08T23:22:15.029Z,67.63
2023-02-08T23:24:42.977Z,67.54
2023-02-08T23:27:11.472Z,67.70
2023-02-08T23:29:39.424Z,67.74
2023-02-08T23:32:07.471Z,67.64
2023-02-08T23:34:35.421Z,67.71
2023-02-08T23:37:03.429Z,67.66
2023-02-08T23:39:34.124Z,67.57
2023-02-08T23:42:02.081Z,67.68
2023-02-08T23:44:30.020Z,67.74
2023-02-08T23:46:57.960Z,67.72
2023-02-08T23:49:25.875Z,67.72
2023-02-08T23:51:53.774Z,67.75
2023-02-08T23:54:21.669Z,67.76
2023-02-08T23:56:51.940Z,67.61
2023-02-08T23:59:19.879Z,67.67
